Kezdőlap
METAR-TAF:

METAR-TAF

Repülőterek :

Béjaïa, Algéria

földrajzi szélesség: 36-43N, földrajzi hosszúság: 005-04E, magasság: 2 m

Jelenlegi meteorológiai megfigyelések

A jelentés 25 perccel ezelõtt készült, 07:00 UTC
Nyugat-délnyugati szél 11 kt
Hőmérséklet 26°C
Páratartalom 37%
Légköri nyomás 1015 hPa
Látótávolság 10 km, vagy több
felhőtlen 1500 m magasságban, és nincs gomolyfelhõ

METAR: DAAE 270700Z 25011KT CAVOK 26/10 Q1015

Idő: 08:25 (07:25 UTC)

Előrejelzés

A jelentés 2 órával és 25 perccel ezelõtt készült, 05:00 UTC
Az előrejelzés 27-én 06 óra UTC és 28-én 06 óra UTC között érvényes
Nyugat-délnyugati szél 12 kt
Látótávolság 10 km, vagy több
felhőtlen 1500 m magasságban, és nincs gomolyfelhõ
27-én 10 óra UTC és 27-én 12 óra UTC között fokozatosan kialakuló
Északkeleti szél 8 kt

TAF: DAAE 270500Z 2706/2806 24012KT CAVOK BECMG 2710/2712 04008KT

Meteorológiai megfigyelések és előrejelzések több, mint 4000 repülőtéren (METAR és TAF jelentéseket).

A térképen piros és sárga pontok jelzik az elérhető meteorológiai állomásokat.

Mozgassa az egeret a pont fölött, hogy megjelenjen az állomás neve.

Azután kattintson az időjárási megfigyelések és előrejelzések megtekintéséhez.

A térkép megváltoztatása: kattintson a fekete keresztel jelölt zöld gombra ráközelítéshez, a vonallal jelölt zöld gombra távolításhoz, vagy a zöld nyilakra a szomszédos térképek eléréséhez.


METAR-TAF: